KSBA/SBA METAR and TAF weather

Enter ICAO airport designator
Station Type Date Time Source
KSBA METAR 2022/12/05 15:53 UTC NOAA

KSBA 051553Z 00000KT 10SM FEW035 12/09 A3005 RMK AO2 SLP177 T01170094


Station Type Date Time Source
KSBA Decoded METAR 2022/12/05 15:53 UTC NOAA

SANTA BARBARA MUNICIPAL, CA, United States (KSBA) 34-26N 119-51W 3M
Dec 05, 2022 - 10:53 AM EST / 2022.12.05 1553 UTC
Wind: Calm:0
Visibility: 10 mile(s):0
Sky conditions: mostly clear
Temperature: 53.1 F (11.7 C)
Dew Point: 48.9 F (9.4 C)
Relative Humidity: 85%
Pressure (altimeter): 30.05 in. Hg (1017 hPa)
ob: KSBA 051553Z 00000KT 10SM FEW035 12/09 A3005 RMK AO2 SLP177 T01170094
cycle: 16

Station Type Date Time Source
KSBA TAF 2022/12/05 14:12 UTC NOAA

TAF
AMD KSBA 051410Z 0514/0612 VRB03KT P6SM BKN200
FM051900 27008KT P6SM BKN200
FM060300 VRB03KT P6SM BKN200
FM060800 VRB03KT 3SM BR SCT012

Example: see airport list